Time;durP1;ratioP1;P1;durP2;ratioP2;P2;SDS_P1;SDS_P2;PMS_P1;PMS_P2;Temp;Humidity;BMP_temperature;BMP_pressure;BME280_temperature;BME280_humidity;BME280_pressure;Samples;Min_cycle;Max_cycle;Signal;HPM_P1;HPM_P2
2021/08/26 00:00:57;;;;;;;17.20;4.20;;;;;;;15.54;100.00;100473.69;4993893;28;20702;-72
2021/08/26 00:06:21;;;;;;;15.70;4.10;;;;;;;15.47;100.00;100465.09;4992682;28;20240;-72
2021/08/26 00:08:48;;;;;;;16.08;3.65;;;;;;;15.17;100.00;100465.78;4992712;28;20182;-72
2021/08/26 00:11:16;;;;;;;14.18;3.90;;;;;;;15.15;100.00;100468.00;4992313;28;20236;-72
2021/08/26 00:13:43;;;;;;;17.57;3.90;;;;;;;15.31;100.00;100463.84;4977185;28;20182;-72
2021/08/26 00:16:09;;;;;;;17.70;4.00;;;;;;;15.39;100.00;100462.31;4993622;28;20240;-73
2021/08/26 00:18:34;;;;;;;16.47;4.07;;;;;;;15.28;100.00;100467.19;4992621;28;20205;-72
2021/08/26 00:21:00;;;;;;;16.90;4.03;;;;;;;15.37;100.00;100473.56;4993390;28;20761;-72
2021/08/26 00:23:26;;;;;;;17.97;4.00;;;;;;;15.23;100.00;100459.06;4992986;28;20682;-73
2021/08/26 00:25:56;;;;;;;12.93;3.90;;;;;;;15.39;100.00;100458.44;4992177;28;20229;-72
2021/08/26 00:28:24;;;;;;;15.83;3.93;;;;;;;15.28;100.00;100453.50;4992013;28;20629;-72
2021/08/26 00:30:52;;;;;;;14.40;3.95;;;;;;;15.25;100.00;100451.38;4991931;28;20228;-73
2021/08/26 00:33:19;;;;;;;14.00;3.85;;;;;;;15.36;100.00;100444.53;4992819;28;20193;-73
2021/08/26 00:35:45;;;;;;;21.23;4.55;;;;;;;15.38;100.00;100447.78;4993296;28;20238;-73
2021/08/26 00:38:13;;;;;;;19.70;4.03;;;;;;;15.20;100.00;100446.03;4993583;28;20589;-72
2021/08/26 00:40:39;;;;;;;17.83;3.78;;;;;;;15.24;100.00;100443.47;4992347;28;20221;-73
2021/08/26 00:43:06;;;;;;;14.43;4.27;;;;;;;15.19;100.00;100436.19;4992720;28;20182;-73
2021/08/26 00:45:33;;;;;;;15.60;4.45;;;;;;;15.27;100.00;100440.13;4993507;28;20232;-72
2021/08/26 00:48:02;;;;;;;19.20;4.20;;;;;;;15.43;100.00;100443.00;4992359;28;20559;-73
2021/08/26 00:50:28;;;;;;;16.52;3.92;;;;;;;15.49;100.00;100447.25;4993450;28;20221;-73
2021/08/26 00:52:56;;;;;;;15.65;3.65;;;;;;;15.40;100.00;100445.53;4993133;28;20627;-73
2021/08/26 00:55:21;;;;;;;16.98;4.25;;;;;;;15.35;100.00;100429.25;4992020;28;20244;-72
2021/08/26 00:57:49;;;;;;;14.95;4.10;;;;;;;15.26;100.00;100428.38;4992418;28;20260;-73
2021/08/26 01:00:15;;;;;;;15.17;3.83;;;;;;;15.23;100.00;100434.44;4991638;28;20389;-73
2021/08/26 01:03:08;;;;;;;15.93;4.50;;;;;;;15.35;100.00;100434.72;4975487;28;20189;-72
2021/08/26 01:05:54;;;;;;;13.73;3.60;;;;;;;15.45;100.00;100431.75;4991065;28;20313;-71
2021/08/26 01:08:34;;;;;;;20.30;4.38;;;;;;;15.50;100.00;100424.22;4975597;28;20182;-75
2021/08/26 01:11:02;;;;;;;12.77;3.80;;;;;;;15.49;100.00;100430.00;4976787;28;20634;-74
2021/08/26 01:13:51;;;;;;;18.63;4.07;;;;;;;15.39;100.00;100424.78;4975908;28;20773;-74
2021/08/26 01:16:16;;;;;;;19.53;4.80;;;;;;;15.41;100.00;100417.06;4992872;28;20217;-74
2021/08/26 01:18:45;;;;;;;23.23;4.30;;;;;;;15.39;100.00;100422.03;4992525;28;20296;-73
2021/08/26 01:21:15;;;;;;;16.05;4.18;;;;;;;15.47;100.00;100418.56;4960420;28;20683;-73
2021/08/26 01:23:48;;;;;;;20.05;4.88;;;;;;;15.44;100.00;100422.72;4991507;28;20196;-73
2021/08/26 01:26:41;;;;;;;14.27;4.10;;;;;;;15.42;100.00;100415.97;4991092;28;20229;-73
2021/08/26 01:29:11;;;;;;;20.00;3.92;;;;;;;15.39;100.00;100411.88;4985723;28;20182;-72
2021/08/26 01:31:38;;;;;;;15.52;3.72;;;;;;;15.30;100.00;100410.22;4971864;28;20218;-73
2021/08/26 01:34:06;;;;;;;14.77;3.67;;;;;;;15.15;100.00;100413.28;4972069;28;20187;-73
2021/08/26 01:36:38;;;;;;;13.55;3.50;;;;;;;15.06;100.00;100404.16;4975361;28;20217;-73
2021/08/26 01:39:07;;;;;;;16.23;4.47;;;;;;;15.14;100.00;100400.72;4992325;28;20231;-73
2021/08/26 01:41:45;;;;;;;16.70;3.97;;;;;;;15.08;100.00;100407.38;4990687;28;20639;-73
2021/08/26 01:44:13;;;;;;;14.60;4.10;;;;;;;15.09;100.00;100414.50;4991482;28;20622;-73
2021/08/26 01:46:39;;;;;;;17.00;3.53;;;;;;;15.10;100.00;100399.69;4974902;28;20263;-73
2021/08/26 01:49:11;;;;;;;16.27;3.90;;;;;;;15.07;100.00;100389.38;4990809;28;20174;-74
2021/08/26 01:51:40;;;;;;;14.55;3.83;;;;;;;14.88;100.00;100395.28;4990758;28;20233;-73
2021/08/26 01:54:06;;;;;;;14.03;3.87;;;;;;;14.87;100.00;100399.13;4991304;28;20182;-73
2021/08/26 01:56:34;;;;;;;17.87;4.80;;;;;;;14.99;100.00;100407.63;4990602;28;20307;-73
2021/08/26 01:59:02;;;;;;;19.43;4.17;;;;;;;15.00;100.00;100405.38;4990279;28;20220;-72
2021/08/26 02:01:27;;;;;;;18.87;4.07;;;;;;;15.04;100.00;100400.91;4990617;28;20225;-73
2021/08/26 02:03:53;;;;;;;24.97;4.50;;;;;;;15.18;100.00;100399.00;4990830;28;20243;-73
2021/08/26 02:06:19;;;;;;;20.05;4.68;;;;;;;15.12;100.00;100410.31;4991893;28;20217;-74
2021/08/26 02:08:46;;;;;;;20.55;4.53;;;;;;;15.05;100.00;100402.56;4990007;28;20177;-73
2021/08/26 02:11:12;;;;;;;18.27;3.97;;;;;;;15.06;100.00;100400.63;4990801;28;20226;-73
2021/08/26 02:13:37;;;;;;;16.80;3.87;;;;;;;14.95;100.00;100396.47;4992069;28;20188;-73
2021/08/26 02:16:06;;;;;;;20.00;4.30;;;;;;;14.92;100.00;100396.28;4990015;28;20233;-73
2021/08/26 02:18:31;;;;;;;18.63;4.17;;;;;;;14.89;100.00;100396.88;4991386;28;20210;-73
2021/08/26 02:20:59;;;;;;;20.17;3.93;;;;;;;14.93;100.00;100395.19;4989784;28;20225;-73
2021/08/26 02:23:29;;;;;;;19.50;4.00;;;;;;;14.99;100.00;100398.28;4992086;28;20181;-73
2021/08/26 02:25:55;;;;;;;19.33;4.23;;;;;;;15.05;100.00;100390.78;4991394;28;20229;-73
2021/08/26 02:28:23;;;;;;;19.33;4.73;;;;;;;15.05;100.00;100390.78;4990296;28;20177;-73
2021/08/26 02:30:48;;;;;;;23.47;4.50;;;;;;;14.86;100.00;100389.31;4991318;28;20225;-71
2021/08/26 02:33:14;;;;;;;19.47;4.50;;;;;;;14.78;100.00;100395.47;4990444;28;20192;-73
2021/08/26 02:35:42;;;;;;;15.77;3.67;;;;;;;14.68;100.00;100395.69;4991260;28;20753;-72
2021/08/26 02:38:10;;;;;;;14.70;4.30;;;;;;;14.67;100.00;100385.91;4991350;28;20220;-71
2021/08/26 02:40:35;;;;;;;17.33;4.23;;;;;;;14.74;100.00;100394.47;4990240;28;20222;-72
2021/08/26 02:43:08;;;;;;;19.53;4.27;;;;;;;14.74;100.00;100398.03;4991663;28;20671;-72
2021/08/26 02:45:34;;;;;;;17.53;4.10;;;;;;;14.77;100.00;100393.88;4989925;28;20703;-72
2021/08/26 02:48:02;;;;;;;17.87;4.10;;;;;;;14.86;100.00;100392.84;4990210;28;20185;-72
2021/08/26 02:50:28;;;;;;;14.67;3.80;;;;;;;14.79;100.00;100386.97;4989567;28;20213;-73
2021/08/26 02:52:55;;;;;;;18.03;3.87;;;;;;;14.62;100.00;100379.72;4990609;28;20185;-72
2021/08/26 02:55:21;;;;;;;18.17;4.00;;;;;;;14.61;100.00;100384.38;4973676;28;20224;-73
2021/08/26 02:57:47;;;;;;;17.87;4.00;;;;;;;14.58;100.00;100385.00;4974058;28;20181;-73
2021/08/26 03:00:13;;;;;;;20.80;4.50;;;;;;;14.62;100.00;100391.47;4990738;28;20224;-72
2021/08/26 03:02:40;;;;;;;25.27;4.20;;;;;;;14.54;100.00;100383.16;4991739;28;20659;-73
2021/08/26 03:05:06;;;;;;;17.80;3.88;;;;;;;14.61;100.00;100387.09;4990299;28;20264;-72
2021/08/26 03:07:34;;;;;;;16.57;4.10;;;;;;;14.82;100.00;100385.56;4990972;28;20308;-72
2021/08/26 03:10:00;;;;;;;22.23;4.97;;;;;;;14.60;100.00;100393.69;4957645;28;20212;-72
2021/08/26 03:12:25;;;;;;;14.93;3.70;;;;;;;14.61;100.00;100378.09;4989818;28;20222;-73
2021/08/26 03:14:51;;;;;;;19.07;4.23;;;;;;;14.64;100.00;100390.03;4991248;28;20582;-72
2021/08/26 03:17:16;;;;;;;22.07;4.80;;;;;;;14.63;100.00;100387.59;4989898;28;20235;-72
2021/08/26 03:19:44;;;;;;;20.80;4.50;;;;;;;14.54;100.00;100392.19;4989587;28;20209;-73
2021/08/26 03:22:12;;;;;;;23.20;4.23;;;;;;;14.51;100.00;100387.31;4990932;28;20229;-73
2021/08/26 03:24:40;;;;;;;20.20;4.50;;;;;;;14.53;100.00;100398.75;4991209;28;20208;-73
2021/08/26 03:27:05;;;;;;;20.57;4.03;;;;;;;14.41;100.00;100383.97;4990746;28;20233;-72
2021/08/26 03:29:34;;;;;;;17.17;3.77;;;;;;;14.43;100.00;100390.78;4989530;28;20193;-73
2021/08/26 03:31:59;;;;;;;19.77;3.60;;;;;;;14.38;100.00;100390.84;4991691;28;20217;-72
2021/08/26 03:34:27;;;;;;;16.80;3.80;;;;;;;14.44;100.00;100395.09;4993628;28;20286;-72
2021/08/26 03:36:54;;;;;;;22.87;4.33;;;;;;;14.45;100.00;100402.22;4977149;28;20611;-73
2021/08/26 03:39:20;;;;;;;18.60;4.00;;;;;;;14.44;100.00;100397.84;4993346;28;20201;-72
2021/08/26 03:41:46;;;;;;;19.03;4.43;;;;;;;14.45;100.00;100395.91;4992696;28;20745;-72
2021/08/26 03:44:14;;;;;;;22.77;4.40;;;;;;;14.42;100.00;100391.88;4993535;28;20185;-72
2021/08/26 03:46:39;;;;;;;22.57;3.93;;;;;;;14.51;100.00;100400.19;4993029;28;20879;-72
2021/08/26 03:49:05;;;;;;;23.60;4.50;;;;;;;14.41;100.00;100389.44;4993177;28;20182;-72
2021/08/26 03:51:35;;;;;;;22.60;4.70;;;;;;;14.40;100.00;100407.75;4992797;28;20829;-72
2021/08/26 03:54:01;;;;;;;20.93;4.23;;;;;;;14.42;100.00;100402.81;4994882;28;20740;-73
2021/08/26 03:56:26;;;;;;;19.10;4.03;;;;;;;14.39;100.00;100394.41;4993825;28;20226;-73
2021/08/26 03:58:54;;;;;;;17.53;4.10;;;;;;;14.34;100.00;100395.31;4976554;28;20671;-72
2021/08/26 04:01:22;;;;;;;17.83;3.87;;;;;;;14.43;100.00;100398.97;4993533;28;20228;-72
2021/08/26 04:03:50;;;;;;;21.20;4.60;;;;;;;14.38;100.00;100407.25;4994551;28;20663;-72
2021/08/26 04:06:15;;;;;;;26.90;4.40;;;;;;;14.33;100.00;100410.06;4994009;28;20296;-72
2021/08/26 04:08:41;;;;;;;24.57;4.47;;;;;;;14.29;100.00;100398.13;4992516;28;20178;-73
2021/08/26 04:11:06;;;;;;;22.67;4.47;;;;;;;14.35;100.00;100396.91;4993816;28;20209;-73
2021/08/26 04:13:32;;;;;;;18.80;4.60;;;;;;;14.34;100.00;100386.28;4994185;28;20190;-73
2021/08/26 04:15:58;;;;;;;22.80;3.90;;;;;;;14.23;100.00;100388.44;4993839;28;20233;-73
2021/08/26 04:18:26;;;;;;;23.03;4.27;;;;;;;14.24;100.00;100390.03;4992460;28;20228;-73
2021/08/26 04:20:52;;;;;;;19.23;3.87;;;;;;;14.12;100.00;100396.28;4992201;28;20309;-73
2021/08/26 04:23:17;;;;;;;19.10;4.03;;;;;;;14.21;100.00;100389.00;4994431;28;20185;-72
2021/08/26 04:25:43;;;;;;;21.03;4.57;;;;;;;14.22;100.00;100396.13;4975817;28;20233;-73
2021/08/26 04:28:12;;;;;;;20.93;5.03;;;;;;;14.31;100.00;100401.38;4993427;28;20261;-72
2021/08/26 04:30:39;;;;;;;20.37;4.17;;;;;;;14.24;100.00;100400.97;4992017;28;20682;-72
2021/08/26 04:33:05;;;;;;;18.50;4.70;;;;;;;14.47;100.00;100394.50;4977010;28;20186;-73
2021/08/26 04:35:31;;;;;;;20.50;4.40;;;;;;;14.36;100.00;100397.75;4959562;28;20233;-72
2021/08/26 04:37:56;;;;;;;20.97;5.17;;;;;;;14.30;100.00;100399.78;4976256;28;20181;-73
2021/08/26 04:40:24;;;;;;;21.20;4.67;;;;;;;14.28;100.00;100390.25;4991568;28;20236;-74
2021/08/26 04:42:50;;;;;;;17.27;4.43;;;;;;;14.24;100.00;100390.03;4976623;28;20200;-73
2021/08/26 04:45:16;;;;;;;18.20;3.77;;;;;;;14.46;100.00;100387.41;4975147;28;20210;-73
2021/08/26 04:47:41;;;;;;;21.40;4.90;;;;;;;14.38;100.00;100401.00;4993649;28;20214;-73
2021/08/26 04:50:07;;;;;;;18.33;4.23;;;;;;;14.41;100.00;100393.00;4992635;28;20186;-73
2021/08/26 04:52:33;;;;;;;16.37;4.27;;;;;;;14.36;100.00;100384.88;4992557;28;20193;-73
2021/08/26 04:55:01;;;;;;;16.60;4.13;;;;;;;14.42;100.00;100385.59;4992321;28;20611;-72
2021/08/26 04:57:27;;;;;;;19.30;4.20;;;;;;;14.31;100.00;100384.97;4991129;28;20221;-73
2021/08/26 04:59:52;;;;;;;21.47;4.50;;;;;;;14.28;100.00;100384.78;4991960;28;20565;-72
2021/08/26 05:02:18;;;;;;;19.83;4.37;;;;;;;14.35;100.00;100391.44;4975615;28;20256;-72
2021/08/26 05:04:51;;;;;;;19.70;4.10;;;;;;;14.43;100.00;100388.03;4992021;28;20260;-72
2021/08/26 05:07:19;;;;;;;17.53;4.20;;;;;;;14.62;100.00;100377.78;4991517;28;20587;-72
2021/08/26 05:09:47;;;;;;;21.50;4.40;;;;;;;14.53;100.00;100376.88;4991711;28;20174;-72
2021/08/26 05:12:15;;;;;;;21.20;4.40;;;;;;;14.52;100.00;100386.19;4991433;28;20696;-73
2021/08/26 05:14:41;;;;;;;20.23;4.37;;;;;;;14.50;100.00;100382.16;4975729;28;20209;-72
2021/08/26 05:17:11;;;;;;;19.43;4.07;;;;;;;14.64;100.00;100384.56;4992670;28;20597;-72
2021/08/26 05:19:37;;;;;;;17.47;4.73;;;;;;;14.71;100.00;100387.72;4975348;28;20248;-72
2021/08/26 05:22:03;;;;;;;21.60;4.60;;;;;;;14.83;100.00;100392.66;4991254;28;20225;-73
2021/08/26 05:24:33;;;;;;;23.50;4.73;;;;;;;14.99;100.00;100384.59;4992932;28;20285;-73
2021/08/26 05:27:02;;;;;;;21.50;4.40;;;;;;;14.91;100.00;100378.25;4990943;28;20221;-73
2021/08/26 05:29:28;;;;;;;17.90;4.50;;;;;;;15.06;100.00;100393.22;4991137;28;20200;-73
2021/08/26 05:31:54;;;;;;;19.13;4.55;;;;;;;14.90;100.00;100382.91;4991257;28;20236;-72
2021/08/26 05:34:19;;;;;;;22.00;4.57;;;;;;;14.96;100.00;100398.09;4991013;28;20177;-72
2021/08/26 05:36:48;;;;;;;20.50;4.60;;;;;;;15.06;100.00;100400.63;4971499;28;20225;-72
2021/08/26 05:39:16;;;;;;;17.60;4.37;;;;;;;14.99;100.00;100391.22;4971329;28;20708;-73
2021/08/26 05:41:44;;;;;;;24.57;4.63;;;;;;;15.03;100.00;100391.06;4986394;28;20716;-73
2021/08/26 05:44:18;;;;;;;22.00;4.50;;;;;;;15.09;100.00;100391.78;4975272;28;20228;-72
2021/08/26 05:46:48;;;;;;;17.50;4.63;;;;;;;15.12;100.00;100394.72;4991922;28;20299;-73
2021/08/26 05:49:14;;;;;;;22.70;4.80;;;;;;;15.12;100.00;100391.16;4991107;28;20213;-72
2021/08/26 05:51:42;;;;;;;20.60;4.73;;;;;;;15.23;100.00;100387.91;4974735;28;20595;-73
2021/08/26 05:54:08;;;;;;;18.17;4.80;;;;;;;15.43;100.00;100398.41;4991146;28;20298;-73
2021/08/26 05:56:38;;;;;;;19.10;4.70;;;;;;;15.48;100.00;100396.34;4971410;28;20280;-73
2021/08/26 05:59:06;;;;;;;20.87;4.60;;;;;;;15.56;100.00;100398.34;4989059;28;20220;-72
2021/08/26 06:01:34;;;;;;;19.87;4.53;;;;;;;15.58;100.00;100395.28;4990305;28;20698;-73
2021/08/26 06:03:59;;;;;;;18.10;4.63;;;;;;;15.54;100.00;100399.78;4991124;28;20188;-73
2021/08/26 06:06:27;;;;;;;18.58;4.55;;;;;;;15.49;100.00;100394.41;4992039;28;20606;-72
2021/08/26 06:08:53;;;;;;;20.20;4.18;;;;;;;15.44;100.00;100400.03;4990683;28;20178;-73
2021/08/26 06:11:19;;;;;;;23.47;5.57;;;;;;;15.53;100.00;100400.88;4958081;28;20229;-73
2021/08/26 06:13:45;;;;;;;18.73;5.65;;;;;;;15.58;100.00;100414.47;4991672;28;20216;-73
2021/08/26 06:16:10;;;;;;;15.40;4.77;;;;;;;15.50;100.00;100404.25;4991326;28;20222;-72
2021/08/26 06:18:38;;;;;;;13.13;4.77;;;;;;;15.65;100.00;100391.00;4974279;28;20228;-73
2021/08/26 06:21:04;;;;;;;22.10;4.87;;;;;;;15.69;100.00;100386.50;4991457;28;20708;-73
2021/08/26 06:23:29;;;;;;;20.17;4.85;;;;;;;15.74;100.00;100371.91;4990826;28;20186;-72
2021/08/26 06:25:57;;;;;;;26.67;5.67;;;;;;;15.89;100.00;100375.84;4991254;28;20233;-73
2021/08/26 06:28:26;;;;;;;21.80;5.37;;;;;;;15.88;100.00;100379.72;4990267;28;20218;-72
2021/08/26 06:30:51;;;;;;;18.65;4.78;;;;;;;16.04;100.00;100389.13;4990076;28;20232;-72
2021/08/26 06:33:19;;;;;;;20.57;4.40;;;;;;;15.97;100.00;100394.28;4974391;28;20182;-73
2021/08/26 06:35:45;;;;;;;18.85;4.90;;;;;;;15.96;100.00;100392.66;4991236;28;20267;-73
2021/08/26 06:38:10;;;;;;;17.42;4.88;;;;;;;16.16;100.00;100389.38;4990197;28;20185;-73
2021/08/26 06:40:36;;;;;;;18.75;4.72;;;;;;;16.13;100.00;100387.25;4974036;28;20710;-73
2021/08/26 06:43:01;;;;;;;17.08;4.60;;;;;;;15.91;100.00;100384.56;4991679;28;20170;-74
2021/08/26 06:45:27;;;;;;;21.25;4.80;;;;;;;15.95;100.00;100369.13;4989331;28;20229;-72
2021/08/26 06:47:52;;;;;;;23.87;5.33;;;;;;;15.83;100.00;100376.31;4970548;28;20198;-74
2021/08/26 06:50:18;;;;;;;14.18;4.22;;;;;;;15.86;100.00;100387.44;4949705;28;20178;-72
2021/08/26 06:52:46;;;;;;;20.77;5.10;;;;;;;16.09;100.00;100389.00;4973445;28;20267;-72
2021/08/26 06:55:12;;;;;;;22.03;5.10;;;;;;;16.36;100.00;100392.41;4973723;28;20211;-72
2021/08/26 06:57:40;;;;;;;13.35;4.63;;;;;;;16.44;100.00;100385.34;4990222;28;20186;-72
2021/08/26 07:00:08;;;;;;;15.38;4.25;;;;;;;16.43;100.00;100386.47;4989773;28;20582;-73
2021/08/26 07:02:33;;;;;;;13.73;4.07;;;;;;;16.36;100.00;100402.56;4990161;28;20659;-73
2021/08/26 07:04:59;;;;;;;16.45;4.22;;;;;;;16.22;100.00;100390.88;4989772;28;20221;-73
2021/08/26 07:07:24;;;;;;;14.90;4.28;;;;;;;16.27;100.00;100394.31;4990940;28;20221;-73
2021/08/26 07:09:52;;;;;;;18.45;4.55;;;;;;;16.51;100.00;100402.16;4974869;28;20186;-73
2021/08/26 07:12:18;;;;;;;18.67;4.78;;;;;;;16.67;100.00;100404.94;4945843;28;20284;-72
2021/08/26 07:14:43;;;;;;;13.75;4.68;;;;;;;16.55;100.00;100411.34;4994828;28;20201;-73
2021/08/26 07:17:10;;;;;;;15.88;4.38;;;;;;;16.75;100.00;100415.13;4994063;28;20696;-73
2021/08/26 07:19:36;;;;;;;14.50;3.78;;;;;;;16.54;100.00;100421.53;4995254;28;20217;-73
2021/08/26 07:22:04;;;;;;;19.90;4.40;;;;;;;16.48;100.00;100427.44;4978021;28;20217;-72
2021/08/26 07:24:32;;;;;;;14.15;4.28;;;;;;;16.18;100.00;100448.25;4994232;28;20236;-73
2021/08/26 07:26:57;;;;;;;18.92;4.32;;;;;;;16.17;100.00;100454.03;4960673;28;20904;-72
2021/08/26 07:29:23;;;;;;;16.40;4.38;;;;;;;16.21;100.00;100452.31;4971413;28;20182;-73
2021/08/26 07:31:49;;;;;;;19.73;4.40;;;;;;;16.31;100.00;100450.09;4995175;28;20205;-74
2021/08/26 07:34:19;;;;;;;17.73;4.60;;;;;;;16.25;100.00;100445.09;4991598;28;20292;-74
2021/08/26 07:36:45;;;;;;;16.57;3.93;;;;;;;16.50;100.00;100442.47;4993855;28;20225;-73
2021/08/26 07:39:10;;;;;;;13.00;3.97;;;;;;;16.57;100.00;100432.69;4993281;28;20201;-77
2021/08/26 07:41:38;;;;;;;17.48;4.53;;;;;;;16.42;100.00;100428.72;4987421;28;20218;-72
2021/08/26 07:44:04;;;;;;;18.30;4.13;;;;;;;16.59;100.00;100435.91;4993116;28;20201;-71
2021/08/26 07:46:32;;;;;;;20.43;4.67;;;;;;;16.69;100.00;100421.91;4990126;28;20307;-72
2021/08/26 07:48:57;;;;;;;16.13;4.37;;;;;;;16.90;100.00;100431.16;4974056;28;20209;-73
2021/08/26 07:51:23;;;;;;;14.85;4.18;;;;;;;17.16;100.00;100419.16;4976539;28;20226;-72
2021/08/26 07:53:49;;;;;;;13.32;3.83;;;;;;;17.29;100.00;100422.84;4993381;28;20240;-78
2021/08/26 07:56:19;;;;;;;13.05;3.65;;;;;;;17.23;100.00;100424.16;5002519;28;20304;-72
2021/08/26 07:58:49;;;;;;;15.13;3.85;;;;;;;17.36;100.00;100421.25;4975870;28;20275;-74
2021/08/26 08:01:15;;;;;;;16.52;3.70;;;;;;;17.34;100.00;100421.59;4992724;28;20209;-72
2021/08/26 08:03:45;;;;;;;13.45;3.15;;;;;;;17.38;100.00;100422.56;4961587;28;20185;-73
2021/08/26 08:06:16;;;;;;;13.05;3.33;;;;;;;17.35;100.00;100417.69;4992476;28;20233;-73
2021/08/26 08:08:44;;;;;;;12.13;3.50;;;;;;;17.22;100.00;100415.13;4976575;28;20200;-73
2021/08/26 08:11:15;;;;;;;14.40;3.50;;;;;;;17.30;100.00;100424.50;4992046;28;20339;-72
2021/08/26 08:13:41;;;;;;;13.52;3.15;;;;;;;17.22;100.00;100428.03;4988870;28;20190;-72
2021/08/26 08:16:13;;;;;;;11.95;3.10;;;;;;;17.22;100.00;100414.31;4975604;28;20246;-72
2021/08/26 08:18:41;;;;;;;10.50;3.20;;;;;;;17.43;100.00;100419.63;4985881;28;20371;-72
2021/08/26 08:21:09;;;;;;;11.13;3.33;;;;;;;17.49;100.00;100418.38;4974776;28;20260;-72
2021/08/26 08:23:40;;;;;;;12.18;4.00;;;;;;;17.71;100.00;100403.63;4989411;28;20193;-73
2021/08/26 08:26:10;;;;;;;13.07;3.33;;;;;;;17.16;100.00;100408.16;4990815;28;20233;-76
2021/08/26 08:28:36;;;;;;;11.10;3.17;;;;;;;17.16;100.00;100399.94;4992439;28;20186;-72
2021/08/26 08:31:04;;;;;;;13.13;3.13;;;;;;;17.53;100.00;100402.84;4993000;28;20364;-76
2021/08/26 08:33:30;;;;;;;12.60;2.83;;;;;;;17.28;100.00;100404.78;4992330;28;20186;-73
2021/08/26 08:35:56;;;;;;;9.95;2.50;;;;;;;17.13;100.00;100407.97;4972109;28;20281;-73
2021/08/26 08:38:22;;;;;;;10.32;2.83;;;;;;;17.12;100.00;100409.09;4988857;28;20218;-73
2021/08/26 08:40:50;;;;;;;12.85;3.13;;;;;;;17.64;100.00;100404.13;4994225;28;20217;-72
2021/08/26 08:43:19;;;;;;;8.48;3.10;;;;;;;17.98;100.00;100410.38;4994535;28;20413;-74
2021/08/26 08:45:45;;;;;;;10.73;3.13;;;;;;;17.93;100.00;100410.56;4995339;28;20229;-73
2021/08/26 08:48:13;;;;;;;10.52;2.40;;;;;;;18.02;100.00;100405.88;4995428;28;20189;-72
2021/08/26 08:50:40;;;;;;;10.13;2.90;;;;;;;17.74;100.00;100403.78;4961395;28;20229;-72
2021/08/26 08:53:06;;;;;;;10.73;2.83;;;;;;;17.71;100.00;100404.47;4992626;28;20611;-71
2021/08/26 08:55:31;;;;;;;11.73;2.90;;;;;;;17.63;100.00;100405.25;4970991;28;20230;-71
2021/08/26 08:57:57;;;;;;;11.05;2.83;;;;;;;17.52;100.00;100411.41;4976413;28;20194;-72
2021/08/26 09:00:23;;;;;;;8.82;2.55;;;;;;;17.76;100.00;100418.00;4990512;28;20214;-72
2021/08/26 09:02:49;;;;;;;14.05;2.85;;;;;;;17.60;100.00;100425.16;4993595;28;20269;-72
2021/08/26 09:05:20;;;;;;;12.30;2.67;;;;;;;17.45;100.00;100417.41;4992770;28;20290;-72
2021/08/26 09:07:45;;;;;;;13.18;3.30;;;;;;;17.21;100.00;100423.66;4992535;28;20198;-72
2021/08/26 09:10:13;;;;;;;11.32;3.05;;;;;;;17.63;100.00;100423.69;4992047;28;20220;-73
2021/08/26 09:12:45;;;;;;;9.90;2.70;;;;;;;17.76;100.00;100429.84;4976534;28;20185;-73
2021/08/26 09:15:11;;;;;;;10.00;3.15;;;;;;;18.05;100.00;100418.16;4992163;28;20292;-73
2021/08/26 09:17:41;;;;;;;10.82;3.13;;;;;;;17.98;100.00;100426.06;4976578;28;20595;-73
2021/08/26 09:20:10;;;;;;;10.45;2.90;;;;;;;18.25;100.00;100432.03;4990404;28;20241;-73
2021/08/26 09:22:38;;;;;;;9.55;2.72;;;;;;;18.11;100.00;100430.59;4994555;28;20251;-73
2021/08/26 09:25:07;;;;;;;14.60;2.80;;;;;;;17.95;100.00;100433.03;4987991;28;20205;-71
2021/08/26 09:27:35;;;;;;;8.07;2.65;;;;;;;17.73;100.00;100435.97;4990240;28;20255;-75
2021/08/26 09:30:06;;;;;;;11.93;2.50;;;;;;;17.61;100.00;100442.44;4991366;28;20178;-75
2021/08/26 09:32:35;;;;;;;9.10;2.55;;;;;;;17.59;100.00;100434.50;4993945;28;20782;-75
2021/08/26 09:35:25;;;;;;;9.50;2.58;;;;;;;17.81;100.00;100431.59;4994010;28;20209;-75
2021/08/26 09:37:58;;;;;;;9.75;2.33;;;;;;;17.89;100.00;100439.03;4990439;28;20224;-75
2021/08/26 09:40:26;;;;;;;8.38;1.98;;;;;;;17.74;100.00;100425.78;4956916;28;20230;-72
2021/08/26 09:42:56;;;;;;;8.80;2.10;;;;;;;18.03;100.00;100442.41;4984394;28;20193;-74
2021/08/26 09:45:23;;;;;;;5.38;2.00;;;;;;;17.98;100.00;100443.38;4990979;28;20213;-73
2021/08/26 09:48:05;;;;;;;6.45;1.80;;;;;;;18.10;100.00;100434.50;4976186;28;20219;-76
2021/08/26 09:50:36;;;;;;;5.45;1.77;;;;;;;17.65;100.00;100438.72;4990721;28;20213;-76
2021/08/26 09:53:04;;;;;;;7.97;1.90;;;;;;;18.00;100.00;100443.03;4977718;28;20531;-74
2021/08/26 09:55:48;;;;;;;8.95;1.90;;;;;;;17.94;100.00;100447.91;4994024;28;20253;-76
2021/08/26 09:58:13;;;;;;;8.15;1.55;;;;;;;18.10;100.00;100434.50;4993114;28;20189;-76
2021/08/26 10:00:41;;;;;;;4.60;1.35;;;;;;;17.67;100.00;100452.13;4993594;28;20596;-75
2021/08/26 10:03:10;;;;;;;7.50;1.67;;;;;;;17.52;100.00;100456.16;4994107;28;20264;-75
2021/08/26 10:05:46;;;;;;;4.55;1.40;;;;;;;17.51;100.00;100453.75;4976661;28;20221;-75
2021/08/26 10:08:20;;;;;;;6.53;1.27;;;;;;;17.70;100.00;100449.53;4971733;28;20190;-75
2021/08/26 10:10:48;;;;;;;4.75;1.40;;;;;;;18.09;100.00;100447.41;4977320;28;20242;-75
2021/08/26 10:13:13;;;;;;;4.70;1.52;;;;;;;18.07;100.00;100451.63;5003387;28;20192;-74
2021/08/26 10:15:41;;;;;;;5.97;1.45;;;;;;;17.92;100.00;100460.38;4992119;28;20221;-74
2021/08/26 10:18:06;;;;;;;5.13;1.30;;;;;;;17.99;100.00;100442.25;4994725;28;20268;-78
2021/08/26 10:20:32;;;;;;;5.47;1.20;;;;;;;17.97;100.00;100440.97;4992913;28;20224;-77
2021/08/26 10:23:00;;;;;;;4.38;1.33;;;;;;;17.91;100.00;100447.75;4995172;28;20178;-75
2021/08/26 10:25:28;;;;;;;3.60;1.20;;;;;;;18.11;100.00;100441.59;4982772;28;20221;-77
2021/08/26 10:27:56;;;;;;;4.75;1.30;;;;;;;17.89;100.00;100444.50;4980586;28;20240;-73
2021/08/26 10:30:29;;;;;;;5.60;1.20;;;;;;;18.14;100.00;100430.75;4964941;28;20263;-76
2021/08/26 10:33:14;;;;;;;5.47;1.20;;;;;;;18.39;100.00;100438.16;4959628;28;20269;-74
2021/08/26 10:35:49;;;;;;;2.92;1.25;;;;;;;18.24;100.00;100435.91;4968392;28;20304;-74
2021/08/26 10:38:28;;;;;;;5.90;1.58;;;;;;;18.04;100.00;100430.25;4995874;28;20220;-74
2021/08/26 10:40:58;;;;;;;3.40;1.13;;;;;;;18.15;100.00;100440.66;4992772;28;20233;-74
2021/08/26 10:43:39;;;;;;;6.15;1.10;;;;;;;18.46;100.00;100439.25;4991044;28;20276;-75
2021/08/26 10:46:09;;;;;;;7.05;1.48;;;;;;;18.81;94.16;100429.69;4980602;28;20224;-74
2021/08/26 10:48:35;;;;;;;3.85;0.90;;;;;;;18.73;95.25;100433.31;4965830;28;20204;-75
2021/08/26 10:51:20;;;;;;;4.25;0.90;;;;;;;18.85;93.97;100427.91;4990463;28;20627;-73
2021/08/26 10:53:48;;;;;;;4.22;0.85;;;;;;;18.95;84.73;100426.41;4992312;28;20177;-75
2021/08/26 10:56:29;;;;;;;2.35;0.77;;;;;;;18.83;89.34;100421.91;4988893;28;20639;-75
2021/08/26 10:58:56;;;;;;;2.75;0.90;;;;;;;18.78;82.66;100424.88;4938307;28;20210;-76
2021/08/26 11:01:27;;;;;;;4.30;0.85;;;;;;;19.00;82.96;100412.44;4986767;28;20224;-75
2021/08/26 11:03:55;;;;;;;3.25;0.80;;;;;;;19.22;83.42;100417.66;4992272;28;20212;-73
2021/08/26 11:06:29;;;;;;;3.63;0.75;;;;;;;19.13;81.24;100419.66;4970873;28;20218;-77
2021/08/26 11:08:59;;;;;;;3.22;0.70;;;;;;;19.22;77.56;100417.66;4972697;28;20190;-73
2021/08/26 11:11:30;;;;;;;4.75;0.90;;;;;;;19.58;80.23;100406.84;4981613;28;20226;-76
2021/08/26 11:14:02;;;;;;;2.80;0.80;;;;;;;19.54;74.48;100414.16;4990943;28;20197;-77
2021/08/26 11:16:30;;;;;;;1.83;0.60;;;;;;;19.59;75.83;100414.78;4990463;28;20280;-77
2021/08/26 11:18:57;;;;;;;2.50;0.70;;;;;;;19.87;77.57;100426.88;4992525;28;20249;-81